• Join FlightAware (Why Join?)
  • Login
  • US Flag 
03:39AM EDT


 

Airport Tracker/Info


-or-


 

Live Flight TrackerFlight Track Log ✈ N885WT ✈ 17-Jul-2013 ✈ RKSI / ICN - KCRQ

Flight Track Log - Related Links

Times and Time Zones

All times are in EDT time to prevent confusion due to time zone crossing. See the N885WT flight status page for this flight to view local times or setup timezone preferences in your user account.

Time Position Orientation Groundspeed Altitude Reporting Facility
EDT Latitude Longitude Course Direction KTS MPH feet Rate Location/Type
10:59PM 53.3774 -179.4432 49° Northeast  Level Estimated
11:00PM 53.3783 -179.3501 89° East  Level Estimated
11:01PM 53.3791 -179.2569 89° East  Level Estimated
11:02PM 53.3798 -179.1638 89° East  Level Estimated
11:03PM 53.3805 -179.0706 89° East  Level Estimated
11:04PM 53.3811 -178.9775 89° East  Level Estimated
11:05PM 53.3816 -178.8844 89° East  Level Estimated
11:06PM 53.3820 -178.7912 90° East  Level Estimated
11:07PM 53.3824 -178.6981 90° East  Level Estimated
11:08PM 53.3827 -178.6049 90° East  Level Estimated
11:09PM 53.3829 -178.5118 90° East  Level Estimated
11:10PM 53.3831 -178.4186 90° East  Level Estimated
11:11PM 53.3832 -178.3255 90° East  Level Estimated
11:12PM 53.3832 -178.2323 90° East  Level Estimated
11:13PM 53.3831 -178.1392 90° East  Level Estimated
11:14PM 53.3830 -178.0460 90° East  Level Estimated
11:15PM 53.3828 -177.9529 90° East  Level Estimated
11:16PM 53.3825 -177.8597 90° East  Level Estimated
11:17PM 53.3821 -177.7666 90° East  Level Estimated
11:18PM 53.3817 -177.6734 90° East  Level Estimated
11:19PM 53.3812 -177.5803 90° East  Level Estimated
11:20PM 53.3806 -177.4872 91° East  Level Estimated
11:21PM 53.3800 -177.3940 91° East  Level Estimated
11:22PM 53.3792 -177.3009 91° East  Level Estimated
11:23PM 53.3784 -177.2078 91° East  Level Estimated
11:24PM 53.3776 -177.1146 91° East  Level Estimated
11:25PM 53.3767 -177.0215 91° East  Level Estimated
11:26PM 53.3756 -176.9284 91° East  Level Estimated
11:27PM 53.3746 -176.8353 91° East  Level Estimated
11:28PM 53.3734 -176.7422 91° East  Level Estimated
11:29PM 53.3722 -176.6491 91° East  Level Estimated
11:30PM 53.3709 -176.5560 91° East  Level Estimated
11:31PM 53.3695 -176.4629 91° East  Level Estimated
11:32PM 53.3681 -176.3698 91° East  Level Estimated
11:33PM 53.3666 -176.2767 92° East  Level Estimated
11:34PM 53.3650 -176.1836 92° East  Level Estimated
11:35PM 53.3633 -176.0906 92° East  Level Estimated
11:36PM 53.3616 -175.9975 92° East  Level Estimated
11:37PM 53.3598 -175.9045 92° East  Level Estimated
11:38PM 53.3579 -175.8114 92° East  Level Estimated
11:39PM 53.3559 -175.7184 92° East  Level Estimated
11:40PM 53.3539 -175.6254 92° East  Level Estimated
11:41PM 53.3518 -175.5323 92° East  Level Estimated
11:42PM 53.3497 -175.4393 92° East  Level Estimated
11:43PM 53.3474 -175.3463 92° East  Level Estimated
11:44PM 53.3451 -175.2533 92° East  Level Estimated
11:45PM 53.3427 -175.1604 92° East  Level Estimated
11:46PM 53.3403 -175.0674 92° East  Level Estimated
11:47PM 53.3377 -174.9744 93° East  Level Estimated
11:48PM 53.3351 -174.8815 93° East  Level Estimated
11:49PM 53.3325 -174.7885 93° East  Level Estimated
11:50PM 53.3297 -174.6956 93° East  Level Estimated
11:51PM 53.3269 -174.6027 93° East  Level Estimated
11:52PM 53.3240 -174.5098 93° East  Level Estimated
11:53PM 53.3211 -174.4169 93° East  Level Estimated
11:54PM 53.3180 -174.3241 93° East  Level Estimated
11:55PM 53.3149 -174.2312 93° East  Level Estimated
11:56PM 53.3117 -174.1384 93° East  Level Estimated
11:57PM 53.3085 -174.0455 93° East  Level Estimated
11:58PM 53.3052 -173.9527 93° East  Level Estimated
11:59PM 53.3018 -173.8599 93° East  Level Estimated
12:00AM 53.2983 -173.7671 94° East  Level Estimated
12:01AM 53.2948 -173.6744 94° East  Level Estimated
12:02AM 53.2912 -173.5816 94° East  Level Estimated
12:03AM 53.2875 -173.4889 94° East  Level Estimated
12:04AM 53.2837 -173.3961 94° East  Level Estimated
12:05AM 53.2799 -173.3034 94° East  Level Estimated
12:06AM 53.2760 -173.2107 94° East  Level Estimated
12:07AM 53.2720 -173.1181 94° East  Level Estimated
12:08AM 53.2680 -173.0254 94° East  Level Estimated
12:09AM 53.2639 -172.9328 94° East  Level Estimated
12:10AM 53.2597 -172.8401 94° East  Level Estimated
12:11AM 53.2554 -172.7475 94° East  Level Estimated
12:12AM 53.2511 -172.6550 94° East  Level Estimated
12:13AM 53.2467 -172.5624 95° East  Level Estimated
12:14AM 53.2422 -172.4698 95° East  Level Estimated
12:15AM 53.2377 -172.3773 95° East  Level Estimated
12:16AM 53.2331 -172.2848 95° East  Level Estimated
12:17AM 53.2284 -172.1923 95° East  Level Estimated
12:18AM 53.2236 -172.0999 95° East  Level Estimated
12:19AM 53.2188 -172.0074 95° East  Level Estimated
12:20AM 53.2139 -171.9150 95° East  Level Estimated
12:21AM 53.2089 -171.8226 95° East  Level Estimated
12:22AM 53.2039 -171.7302 95° East  Level Estimated
12:23AM 53.1988 -171.6378 95° East  Level Estimated
12:24AM 53.1936 -171.5455 95° East  Level Estimated
12:25AM 53.1883 -171.4532 95° East  Level Estimated
12:26AM 53.1830 -171.3609 95° East  Level Estimated
12:27AM 53.1776 -171.2686 96° East  Level Estimated
12:28AM 53.1721 -171.1764 96° East  Level Estimated
12:29AM 53.1666 -171.0842 96° East  Level Estimated
12:30AM 53.1610 -170.9919 96° East  Level Estimated
12:31AM 53.1553 -170.8998 96° East  Level Estimated
12:32AM 53.1495 -170.8076 96° East  Level Estimated
12:33AM 53.1437 -170.7155 96° East  Level Estimated
12:34AM 53.1378 -170.6234 96° East  Level Estimated
12:35AM 53.1318 -170.5313 96° East  Level Estimated
12:36AM 53.1258 -170.4393 96° East  Level Estimated
12:37AM 53.1197 -170.3473 96° East  Level Estimated
12:38AM 53.1135 -170.2553 96° East  Level Estimated
12:39AM 53.1073 -170.1633 96° East  Level Estimated
12:40AM 53.1009 -170.0714 96° East  Level Estimated
12:41AM 53.0945 -169.9794 97° East  Level Estimated
12:42AM 53.0881 -169.8875 97° East  Level Estimated
12:43AM 53.0815 -169.7957 97° East  Level Estimated
12:44AM 53.0749 -169.7039 97° East  Level Estimated
12:45AM 53.0682 -169.6121 97° East  Level Estimated
12:46AM 53.0615 -169.5203 97° East  Level Estimated
12:47AM 53.0547 -169.4285 97° East  Level Estimated
12:48AM 53.0478 -169.3368 97° East  Level Estimated
12:49AM 53.0408 -169.2451 97° East  Level Estimated
12:50AM 53.0338 -169.1535 97° East  Level Estimated
12:51AM 53.0267 -169.0618 97° East  Level Estimated
12:52AM 53.0195 -168.9702 97° East  Level Estimated
12:53AM 53.0123 -168.8787 97° East  Level Estimated
12:54AM 53.0050 -168.7871 98° East  Level Estimated
12:55AM 52.9976 -168.6956 98° East  Level Estimated
12:56AM 52.9901 -168.6042 98° East  Level Estimated
12:57AM 52.9826 -168.5127 98° East  Level Estimated
12:58AM 52.9750 -168.4213 98° East  Level Estimated
12:59AM 52.9674 -168.3299 98° East  Level Estimated
01:00AM 52.9596 -168.2386 98° East  Level Estimated
01:01AM 52.9518 -168.1473 98° East  Level Estimated
01:02AM 52.9440 -168.0560 98° East  Level Estimated
01:03AM 52.9360 -167.9647 98° East  Level Estimated
01:04AM 52.9280 -167.8735 98° East  Level Estimated
01:05AM 52.9199 -167.7823 98° East  Level Estimated
01:06AM 52.9118 -167.6912 98° East  Level Estimated
01:07AM 52.9036 -167.6001 98° East  Level Estimated
01:08AM 52.8953 -167.5090 99° East  Level Estimated
01:09AM 52.8869 -167.4180 99° East  Level Estimated
01:10AM 52.8785 -167.3270 99° East  Level Estimated
01:11AM 52.8700 -167.2360 99° East  Level Estimated
01:12AM 52.8614 -167.1451 99° East  Level Estimated
01:13AM 52.8528 -167.0542 99° East  Level Estimated
01:14AM 52.8441 -166.9633 99° East  Level Estimated
01:15AM 52.8353 -166.8725 99° East  Level Estimated
01:16AM 52.8264 -166.7817 99° East  Level Estimated
01:17AM 52.8175 -166.6910 99° East  Level Estimated
01:18AM 52.8085 -166.6003 99° East  Level Estimated
01:19AM 52.7995 -166.5096 99° East  Level Estimated
01:20AM 52.7903 -166.4189 99° East  Level Estimated
01:21AM 52.7812 -166.3283 99° East  Level Estimated
01:22AM 52.7719 -166.2378 100° East  Level Estimated
01:23AM 52.7626 -166.1473 100° East  Level Estimated
01:24AM 52.7532 -166.0568 100° East  Level Estimated
01:25AM 52.7437 -165.9663 100° East  Level Estimated
01:26AM 52.7341 -165.8759 100° East  Level Estimated
01:27AM 52.7245 -165.7856 100° East  Level Estimated
01:28AM 52.7149 -165.6953 100° East  Level Estimated
01:29AM 52.7051 -165.6050 100° East  Level Estimated
01:30AM 52.6953 -165.5147 100° East  Level Estimated
01:31AM 52.6854 -165.4245 100° East  Level Estimated
01:32AM 52.6755 -165.3344 100° East  Level Estimated
01:33AM 52.6655 -165.2443 100° East  Level Estimated
01:34AM 52.6554 -165.1542 100° East  Level Estimated
01:35AM 52.6452 -165.0641 100° East  Level Estimated
01:36AM 52.6350 -164.9741 101° East  Level Estimated
01:37AM 52.6247 -164.8842 101° East  Level Estimated
01:38AM 52.6144 -164.7943 101° East  Level Estimated
01:39AM 52.6039 -164.7044 101° East  Level Estimated
01:40AM 52.5934 -164.6146 101° East  Level Estimated
01:41AM 52.5829 -164.5248 101° East  Level Estimated
01:42AM 52.5723 -164.4351 101° East  Level Estimated
01:43AM 52.5616 -164.3454 101° East  Level Estimated
01:44AM 52.5508 -164.2557 101° East  Level Estimated
01:45AM 52.5400 -164.1661 101° East  Level Estimated
01:46AM 52.5290 -164.0765 101° East  Level Estimated
01:47AM 52.5181 -163.9870 101° East  Level Estimated
01:48AM 52.5070 -163.8976 101° East  Level Estimated
01:49AM 52.4959 -163.8081 101° East  Level Estimated
01:50AM 52.4848 -163.7187 102° East  Level Estimated
01:51AM 52.4735 -163.6294 102° East  Level Estimated
01:52AM 52.4622 -163.5401 102° East  Level Estimated
01:53AM 52.4509 -163.4509 102° East  Level Estimated
01:54AM 52.4394 -163.3617 102° East  Level Estimated
01:55AM 52.4279 -163.2725 102° East  Level Estimated
01:56AM 52.4163 -163.1834 102° East  Level Estimated
01:57AM 52.4047 -163.0943 102° East  Level Estimated
01:58AM 52.3930 -163.0053 102° East  Level Estimated
01:59AM 52.3812 -162.9164 102° East  Level Estimated
02:00AM 52.3694 -162.8274 102° East  Level Estimated
02:01AM 52.3575 -162.7386 102° East  Level Estimated
02:02AM 52.3455 -162.6497 102° East  Level Estimated
02:03AM 52.3335 -162.5610 102° East  Level Estimated
02:04AM 52.3213 -162.4722 103° East  Level Estimated
02:05AM 52.3092 -162.3836 103° East  Level Estimated
02:06AM 52.2969 -162.2949 103° East  Level Estimated
02:07AM 52.2846 -162.2064 103° East  Level Estimated
02:08AM 52.2723 -162.1178 103° East  Level Estimated
02:09AM 52.2598 -162.0293 103° East  Level Estimated
02:10AM 52.2473 -161.9409 103° East  Level Estimated
02:11AM 52.2347 -161.8525 103° East  Level Estimated
02:12AM 52.2221 -161.7642 103° East  Level Estimated
02:13AM 52.2094 -161.6759 103° East  Level Estimated
02:14AM 52.1966 -161.5877 103° East  Level Estimated
02:15AM 52.1838 -161.4995 103° East  Level Estimated
02:16AM 52.1709 -161.4114 103° East  Level Estimated
02:17AM 52.1579 -161.3233 103° East  Level Estimated
02:18AM 52.1449 -161.2353 104° East  Level Estimated
02:19AM 52.1318 -161.1473 104° East  Level Estimated
02:20AM 52.1186 -161.0594 104° East  Level Estimated
02:21AM 52.1054 -160.9715 104° East  Level Estimated
02:22AM 52.0921 -160.8837 104° East  Level Estimated
02:23AM 52.0788 -160.7959 104° East  Level Estimated
02:24AM 52.0653 -160.7082 104° East  Level Estimated
02:25AM 52.0518 -160.6206 104° East  Level Estimated
02:26AM 52.0383 -160.5330 104° East  Level Estimated
02:27AM 52.0247 -160.4454 104° East  Level Estimated
02:28AM 52.0110 -160.3579 104° East  Level Estimated
02:29AM 51.9972 -160.2705 104° East  Level Estimated
02:30AM 51.9834 -160.1831 104° East  Level Estimated
02:31AM 51.9696 -160.0957 104° East  Level Estimated
02:32AM 51.9556 -160.0085 104° East  Level Estimated
02:33AM 51.9416 -159.9212 105° East  Level Estimated
02:34AM 51.9275 -159.8341 105° East  Level Estimated
02:35AM 51.9134 -159.7469 105° East  Level Estimated
02:36AM 51.8992 -159.6599 105° East  Level Estimated
02:37AM 51.8849 -159.5729 105° East  Level Estimated
02:38AM 51.8706 -159.4859 105° East  Level Estimated
02:39AM 51.8562 -159.3990 105° East  Level Estimated
02:40AM 51.8418 -159.3122 105° East  Level Estimated
02:41AM 51.8272 -159.2254 105° East  Level Estimated
02:42AM 51.8126 -159.1387 105° East  Level Estimated
02:43AM 51.7980 -159.0520 105° East  Level Estimated
02:44AM 51.7833 -158.9653 105° East  Level Estimated
02:45AM 51.7685 -158.8788 105° East  Level Estimated
02:46AM 51.7537 -158.7923 105° East  Level Estimated
02:47AM 51.7388 -158.7058 106° East  Level Estimated
02:48AM 51.7238 -158.6194 106° East  Level Estimated
02:49AM 51.7088 -158.5331 106° East  Level Estimated
02:50AM 51.6937 -158.4468 106° East  Level Estimated
02:51AM 51.6785 -158.3606 106° East  Level Estimated
02:52AM 51.6633 -158.2744 106° East  Level Estimated
02:53AM 51.6480 -158.1884 106° East  Level Estimated
02:54AM 51.6327 -158.1023 106° East  Level Estimated
02:55AM 51.6173 -158.0163 106° East  Level Estimated
02:56AM 51.6018 -157.9304 106° East  Level Estimated
02:57AM 51.5863 -157.8445 106° East  Level Estimated
02:58AM 51.5707 -157.7587 106° East  Level Estimated
02:59AM 51.5550 -157.6729 106° East  Level Estimated
03:00AM 51.5393 -157.5873 106° East  Level Estimated
03:01AM 51.5235 -157.5016 106° East  Level Estimated
03:02AM 51.5077 -157.4161 107° East  Level Estimated
03:03AM 51.4918 -157.3306 107° East  Level Estimated
03:04AM 51.4758 -157.2451 107° East  Level Estimated
03:05AM 51.4598 -157.1597 107° East  Level Estimated
03:06AM 51.4437 -157.0744 107° East  Level Estimated
03:07AM 51.4276 -156.9891 107° East  Level Estimated
03:08AM 51.4113 -156.9039 107° East  Level Estimated
03:09AM 51.3951 -156.8188 107° East  Level Estimated
03:10AM 51.3787 -156.7337 107° East  Level Estimated
03:11AM 51.3623 -156.6486 107° East  Level Estimated
03:12AM 51.3459 -156.5637 107° East  Level Estimated
03:13AM 51.3293 -156.4787 107° East  Level Estimated
03:14AM 51.3127 -156.3939 107° East  Level Estimated
03:15AM 51.2961 -156.3091 107° East  Level Estimated
03:16AM 51.2794 -156.2244 107° East  Level Estimated
03:17AM 51.2626 -156.1397 108° East  Level Estimated
03:18AM 51.2458 -156.0551 108° East  Level Estimated
03:19AM 51.2289 -155.9706 108° East  Level Estimated
03:20AM 51.2119 -155.8861 108° East  Level Estimated
03:21AM 51.1949 -155.8017 108° East  Level Estimated
03:22AM 51.1779 -155.7173 108° East  Level Estimated
03:23AM 51.1607 -155.6330 108° East  Level Estimated
03:24AM 51.1435 -155.5488 108° East  Level Estimated
03:25AM 51.1263 -155.4646 108° East  Level Estimated
03:26AM 51.1090 -155.3805 108° East  Level Estimated
03:27AM 51.0916 -155.2965 108° East  Level Estimated
03:28AM 51.0741 -155.2125 108° East  Level Estimated
03:29AM 51.0566 -155.1286 108° East  Level Estimated
03:30AM 51.0391 -155.0448 108° East  Level Estimated
03:31AM 51.0215 -154.9610 108° East  Level Estimated
03:32AM 51.0038 -154.8772 109° East  Level Estimated
03:33AM 50.9860 -154.7936 109° East  Level Estimated
03:34AM 50.9682 -154.7100 109° East  Level Estimated
03:35AM 50.9504 -154.6265 109° East  Level Estimated
03:36AM 50.9325 -154.5430 109° East  Level Estimated
03:37AM 50.9145 -154.4596 109° East  Level Estimated
03:38AM 50.8965 -154.3763 109° East  Level Estimated
03:39AM 50.8784 -154.2930 109° East  Level Estimated
03:40AM 50.8602 -154.2098 109° East  Level Estimated
03:41AM 50.8420 -154.1266 109° East  Level Estimated
03:42AM 50.8237 -154.0436 109° East  Level Estimated
03:43AM 50.8054 -153.9606 109° East  Level Estimated
03:44AM 50.7870 -153.8776 109° East  Level Estimated
03:45AM 50.7686 -153.7947 109° East  Level Estimated
03:46AM 50.7501 -153.7119 109° East  Level Estimated
03:47AM 50.7315 -153.6292 109° East  Level Estimated
03:48AM 50.7129 -153.5465 110° East  Level Estimated
03:49AM 50.6942 -153.4639 110° East  Level Estimated
03:50AM 50.6755 -153.3813 110° East  Level Estimated
03:51AM 50.6567 -153.2988 110° East  Level Estimated
03:52AM 50.6378 -153.2164 110° East  Level Estimated
03:53AM 50.6189 -153.1340 110° East  Level Estimated
03:54AM 50.5999 -153.0517 110° East  Level Estimated
03:55AM 50.5809 -152.9695 110° East  Level Estimated
03:56AM 50.5618 -152.8874 110° East  Level Estimated
03:57AM 50.5427 -152.8053 110° East  Level Estimated
03:58AM 50.5235 -152.7233 110° East  Level Estimated
03:59AM 50.5042 -152.6413 110° East  Level Estimated
04:00AM 50.4849 -152.5594 110° East  Level Estimated
04:01AM 50.4655 -152.4776 110° East  Level Estimated
04:02AM 50.4461 -152.3958 110° East  Level Estimated
04:03AM 50.4266 -152.3141 111° Southeast  Level Estimated
04:04AM 50.4070 -152.2325 111° Southeast  Level Estimated
04:05AM 50.3874 -152.1510 111° Southeast  Level Estimated
04:06AM 50.3678 -152.0695 111° Southeast  Level Estimated
04:07AM 50.3480 -151.9881 111° Southeast  Level Estimated
04:08AM 50.3283 -151.9067 111° Southeast  Level Estimated
04:09AM 50.3084 -151.8255 111° Southeast  Level Estimated
04:10AM 50.2886 -151.7442 111° Southeast  Level Estimated
04:11AM 50.2686 -151.6631 111° Southeast  Level Estimated
04:12AM 50.2486 -151.5820 111° Southeast  Level Estimated
04:13AM 50.2286 -151.5010 111° Southeast  Level Estimated
04:14AM 50.2085 -151.4201 111° Southeast  Level Estimated
04:15AM 50.1883 -151.3392 111° Southeast  Level Estimated
04:16AM 50.1680 -151.2584 111° Southeast  Level Estimated
04:17AM 50.1478 -151.1776 111° Southeast  Level Estimated
04:18AM 50.1274 -151.0970 111° Southeast  Level Estimated
04:19AM 50.1070 -151.0164 112° Southeast  Level Estimated
04:20AM 50.0866 -150.9359 112° Southeast  Level Estimated
04:21AM 50.0661 -150.8554 112° Southeast  Level Estimated
04:22AM 50.0455 -150.7750 112° Southeast  Level Estimated
04:23AM 50.0249 -150.6947 112° Southeast  Level Estimated
04:24AM 50.0042 -150.6144 112° Southeast  Level Estimated
04:25AM 49.9835 -150.5342 112° Southeast  Level Estimated
04:26AM 49.9627 -150.4541 112° Southeast  Level Estimated
04:27AM 49.9419 -150.3741 112° Southeast  Level Estimated
04:28AM 49.9210 -150.2941 112° Southeast  Level Estimated
04:29AM 49.9000 -150.2142 112° Southeast  Level Estimated
04:30AM 49.8790 -150.1343 112° Southeast  Level Estimated
04:31AM 49.8580 -150.0546 112° Southeast  Level Estimated
04:32AM 49.8369 -149.9749 112° Southeast  Level Estimated
04:33AM 49.8157 -149.8952 112° Southeast  Level Estimated
04:34AM 49.7945 -149.8157 112° Southeast  Level Estimated
04:35AM 49.7732 -149.7362 112° Southeast  Level Estimated
04:36AM 49.7519 -149.6568 113° Southeast  Level Estimated
04:37AM 49.7305 -149.5774 113° Southeast  Level Estimated
04:38AM 49.7090 -149.4981 113° Southeast  Level Estimated
04:39AM 49.6876 -149.4189 113° Southeast  Level Estimated
04:40AM 49.6660 -149.3398 113° Southeast  Level Estimated
04:41AM 49.6444 -149.2607 113° Southeast  Level Estimated
04:42AM 49.6228 -149.1817 113° Southeast  Level Estimated
04:43AM 49.6011 -149.1028 113° Southeast  Level Estimated
04:44AM 49.5793 -149.0239 113° Southeast  Level Estimated
04:45AM 49.5575 -148.9451 113° Southeast  Level Estimated
04:46AM 49.5356 -148.8664 113° Southeast  Level Estimated
04:47AM 49.5137 -148.7878 113° Southeast  Level Estimated
04:48AM 49.4917 -148.7092 113° Southeast  Level Estimated
04:49AM 49.4697 -148.6307 113° Southeast  Level Estimated
04:50AM 49.4476 -148.5522 113° Southeast  Level Estimated
04:51AM 49.4255 -148.4739 113° Southeast  Level Estimated
04:52AM 49.4033 -148.3956 114° Southeast  Level Estimated
04:53AM 49.3811 -148.3173 114° Southeast  Level Estimated
04:54AM 49.3588 -148.2392 114° Southeast  Level Estimated
04:55AM 49.3364 -148.1611 114° Southeast  Level Estimated
04:56AM 49.3140 -148.0831 114° Southeast  Level Estimated
04:57AM 49.2916 -148.0052 114° Southeast  Level Estimated
04:58AM 49.2691 -147.9273 114° Southeast  Level Estimated
04:59AM 49.2465 -147.8495 114° Southeast  Level Estimated
05:00AM 49.2239 -147.7718 114° Southeast  Level Estimated
05:01AM 49.2012 -147.6941 114° Southeast  Level Estimated
05:02AM 49.1785 -147.6165 114° Southeast  Level Estimated
05:03AM 49.1558 -147.5390 114° Southeast  Level Estimated
05:04AM 49.1330 -147.4616 114° Southeast  Level Estimated
05:05AM 49.1101 -147.3842 114° Southeast  Level Estimated
05:06AM 49.0872 -147.3069 114° Southeast  Level Estimated
05:07AM 49.0642 -147.2297 114° Southeast  Level Estimated
05:08AM 49.0412 -147.1525 114° Southeast  Level Estimated
05:09AM 49.0181 -147.0754 115° Southeast  Level Estimated
05:10AM 48.9950 -146.9984 115° Southeast  Level Estimated
05:11AM 48.9718 -146.9215 115° Southeast  Level Estimated
05:12AM 48.9486 -146.8446 115° Southeast  Level Estimated
05:13AM 48.9253 -146.7678 115° Southeast  Level Estimated
05:14AM 48.9020 -146.6911 115° Southeast  Level Estimated
05:15AM 48.8786 -146.6144 115° Southeast  Level Estimated
05:16AM 48.8552 -146.5378 115° Southeast  Level Estimated
05:17AM 48.8317 -146.4613 115° Southeast  Level Estimated
05:18AM 48.8082 -146.3849 115° Southeast  Level Estimated
05:19AM 48.7846 -146.3085 115° Southeast  Level Estimated
05:20AM 48.7610 -146.2322 115° Southeast  Level Estimated
05:21AM 48.7373 -146.1560 115° Southeast  Level Estimated
05:22AM 48.7136 -146.0798 115° Southeast  Level Estimated
05:23AM 48.6898 -146.0037 115° Southeast  Level Estimated
05:24AM 48.6659 -145.9277 115° Southeast  Level Estimated
05:25AM 48.6421 -145.8518 115° Southeast  Level Estimated
05:26AM 48.6181 -145.7759 115° Southeast  Level Estimated
05:27AM 48.5942 -145.7001 116° Southeast  Level Estimated
05:28AM 48.5701 -145.6244 116° Southeast  Level Estimated
05:29AM 48.5460 -145.5488 116° Southeast  Level Estimated
05:30AM 48.5219 -145.4732 116° Southeast  Level Estimated
05:31AM 48.4977 -145.3977 116° Southeast  Level Estimated
05:32AM 48.4735 -145.3222 116° Southeast  Level Estimated
05:33AM 48.4492 -145.2469 116° Southeast  Level Estimated
05:34AM 48.4249 -145.1716 116° Southeast  Level Estimated
05:35AM 48.4005 -145.0964 116° Southeast  Level Estimated
05:36AM 48.3761 -145.0212 116° Southeast  Level Estimated
05:37AM 48.3516 -144.9462 116° Southeast  Level Estimated
05:38AM 48.3271 -144.8712 116° Southeast  Level Estimated
05:39AM 48.3025 -144.7962 116° Southeast  Level Estimated
05:40AM 48.2779 -144.7214 116° Southeast  Level Estimated
05:41AM 48.2532 -144.6466 116° Southeast  Level Estimated
05:42AM 48.2285 -144.5719 116° Southeast  Level Estimated
05:43AM 48.2037 -144.4972 116° Southeast  Level Estimated
05:44AM 48.1789 -144.4227 116° Southeast  Level Estimated
05:45AM 48.1541 -144.3482 117° Southeast  Level Estimated
05:46AM 48.1292 -144.2737 117° Southeast  Level Estimated
05:47AM 48.1042 -144.1994 117° Southeast  Level Estimated
05:48AM 48.0792 -144.1251 117° Southeast  Level Estimated
05:49AM 48.0541 -144.0509 117° Southeast  Level Estimated
05:50AM 48.0290 -143.9768 117° Southeast  Level Estimated
05:51AM 48.0039 -143.9027 117° Southeast  Level Estimated
05:52AM 47.9787 -143.8287 117° Southeast  Level Estimated
05:53AM 47.9534 -143.7548 117° Southeast  Level Estimated
05:54AM 47.9282 -143.6810 117° Southeast  Level Estimated
05:55AM 47.9028 -143.6072 117° Southeast  Level Estimated
05:56AM 47.8774 -143.5335 117° Southeast  Level Estimated
05:57AM 47.8520 -143.4599 117° Southeast  Level Estimated
05:58AM 47.8265 -143.3863 117° Southeast  Level Estimated
05:59AM 47.8010 -143.3128 117° Southeast  Level Estimated
06:00AM 47.7754 -143.2394 117° Southeast  Level Estimated
06:01AM 47.7498 -143.1661 117° Southeast  Level Estimated
06:02AM 47.7241 -143.0928 117° Southeast  Level Estimated
06:03AM 47.6984 -143.0196 118° Southeast  Level Estimated
06:04AM 47.6726 -142.9465 118° Southeast  Level Estimated
06:05AM 47.6468 -142.8734 118° Southeast  Level Estimated
06:06AM 47.6210 -142.8004 118° Southeast  Level Estimated
06:07AM 47.5951 -142.7275 118° Southeast  Level Estimated
06:08AM 47.5691 -142.6547 118° Southeast  Level Estimated
06:09AM 47.5432 -142.5819 118° Southeast  Level Estimated
06:10AM 47.5171 -142.5092 118° Southeast  Level Estimated
06:11AM 47.4910 -142.4366 118° Southeast  Level Estimated
06:12AM 47.4649 -142.3641 118° Southeast  Level Estimated
06:13AM 47.4387 -142.2916 118° Southeast  Level Estimated
06:14AM 47.4125 -142.2192 118° Southeast  Level Estimated
06:15AM 47.3862 -142.1469 118° Southeast  Level Estimated
06:16AM 47.3599 -142.0746 118° Southeast  Level Estimated
06:17AM 47.3336 -142.0024 118° Southeast  Level Estimated
06:18AM 47.3072 -141.9303 118° Southeast  Level Estimated
06:19AM 47.2807 -141.8583 118° Southeast  Level Estimated
06:20AM 47.2542 -141.7863 118° Southeast  Level Estimated
06:21AM 47.2277 -141.7144 119° Southeast  Level Estimated
06:22AM 47.2011 -141.6426 119° Southeast  Level Estimated
06:23AM 47.1745 -141.5708 119° Southeast  Level Estimated
06:24AM 47.1478 -141.4992 119° Southeast  Level Estimated
06:25AM 47.1211 -141.4276 119° Southeast  Level Estimated
06:26AM 47.0943 -141.3560 119° Southeast  Level Estimated
06:27AM 47.0675 -141.2845 119° Southeast  Level Estimated
06:28AM 47.0407 -141.2132 119° Southeast  Level Estimated
06:29AM 47.0138 -141.1418 119° Southeast  Level Estimated
06:30AM 46.9868 -141.0706 119° Southeast  Level Estimated
06:31AM 46.9598 -140.9994 119° Southeast  Level Estimated
06:32AM 46.9328 -140.9283 119° Southeast  Level Estimated
06:33AM 46.9057 -140.8573 119° Southeast  Level Estimated
06:34AM 46.8786 -140.7863 119° Southeast  Level Estimated
06:35AM 46.8515 -140.7154 119° Southeast  Level Estimated
06:36AM 46.8243 -140.6446 119° Southeast  Level Estimated
06:37AM 46.7970 -140.5738 119° Southeast  Level Estimated
06:38AM 46.7697 -140.5032 119° Southeast  Level Estimated
06:39AM 46.7424 -140.4326 119° Southeast  Level Estimated
06:40AM 46.7150 -140.3620 119° Southeast  Level Estimated
06:41AM 46.6876 -140.2916 120° Southeast  Level Estimated
06:42AM 46.6601 -140.2212 120° Southeast  Level Estimated
06:43AM 46.6326 -140.1509 120° Southeast  Level Estimated
06:44AM 46.6051 -140.0806 120° Southeast  Level Estimated
06:45AM 46.5775 -140.0104 120° Southeast  Level Estimated
06:46AM 46.5498 -139.9403 120° Southeast  Level Estimated
06:47AM 46.5222 -139.8703 120° Southeast  Level Estimated
06:48AM 46.4944 -139.8004 120° Southeast  Level Estimated
06:49AM 46.4667 -139.7305 120° Southeast  Level Estimated
06:50AM 46.4389 -139.6606 120° Southeast  Level Estimated
06:51AM 46.4110 -139.5909 120° Southeast  Level Estimated
06:52AM 46.3831 -139.5212 120° Southeast  Level Estimated
06:53AM 46.3552 -139.4516 120° Southeast  Level Estimated
06:54AM 46.3272 -139.3821 120° Southeast  Level Estimated
06:55AM 46.2992 -139.3126 120° Southeast  Level Estimated
06:56AM 46.2711 -139.2432 120° Southeast  Level Estimated
06:57AM 46.2430 -139.1739 120° Southeast  Level Estimated
06:58AM 46.2149 -139.1047 120° Southeast  Level Estimated
06:59AM 46.1867 -139.0355 120° Southeast  Level Estimated
07:00AM 46.1585 -138.9664 121° Southeast  Level Estimated
07:01AM 46.1302 -138.8973 121° Southeast  Level Estimated
07:02AM 46.1019 -138.8284 121° Southeast  Level Estimated
07:03AM 46.0736 -138.7595 121° Southeast  Level Estimated
07:04AM 46.0452 -138.6907 121° Southeast  Level Estimated
07:05AM 46.0167 -138.6219 121° Southeast  Level Estimated
07:06AM 45.9883 -138.5532 121° Southeast  Level Estimated
07:07AM 45.9597 -138.4846 121° Southeast  Level Estimated
07:08AM 45.9312 -138.4161 121° Southeast  Level Estimated
07:09AM 45.9026 -138.3476 121° Southeast  Level Estimated
07:10AM 45.8739 -138.2792 121° Southeast  Level Estimated
07:11AM 45.8452 -138.2109 121° Southeast  Level Estimated
07:12AM 45.8165 -138.1426 121° Southeast  Level Estimated
07:13AM 45.7878 -138.0744 121° Southeast  Level Estimated
07:14AM 45.7590 -138.0063 121° Southeast  Level Estimated
07:15AM 45.7301 -137.9383 121° Southeast  Level Estimated
07:16AM 45.7012 -137.8703 121° Southeast  Level Estimated
07:17AM 45.6723 -137.8024 121° Southeast  Level Estimated
07:18AM 45.6434 -137.7345 121° Southeast  Level Estimated
07:19AM 45.6144 -137.6668 121° Southeast  Level Estimated
07:20AM 45.5853 -137.5991 121° Southeast  Level Estimated
07:21AM 45.5563 -137.5314 122° Southeast  Level Estimated
07:22AM 45.5271 -137.4639 122° Southeast  Level Estimated
07:23AM 45.4980 -137.3964 122° Southeast  Level Estimated
07:24AM 45.4688 -137.3290 122° Southeast  Level Estimated
07:25AM 45.4395 -137.2616 122° Southeast  Level Estimated
07:26AM 45.4103 -137.1943 122° Southeast  Level Estimated
07:27AM 45.3809 -137.1271 122° Southeast  Level Estimated
07:28AM 45.3516 -137.0600 122° Southeast  Level Estimated
07:29AM 45.3222 -136.9929 122° Southeast  Level Estimated
07:30AM 45.2927 -136.9259 122° Southeast  Level Estimated
07:31AM 45.2632 -136.8590 122° Southeast  Level Estimated
07:32AM 45.2337 -136.7921 122° Southeast  Level Estimated
07:33AM 45.2042 -136.7253 122° Southeast  Level Estimated
07:34AM 45.1746 -136.6586 122° Southeast  Level Estimated
07:35AM 45.1449 -136.5920 122° Southeast  Level Estimated
07:36AM 45.1153 -136.5254 122° Southeast  Level Estimated
07:37AM 45.0856 -136.4589 122° Southeast  Level Estimated
07:38AM 45.0558 -136.3924 122° Southeast  Level Estimated
07:39AM 45.0260 -136.3261 122° Southeast  Level Estimated
07:40AM 44.9962 -136.2598 122° Southeast  Level Estimated
07:41AM 44.9663 -136.1935 122° Southeast  Level Estimated
07:42AM 44.9364 -136.1273 123° Southeast  Level Estimated
07:43AM 44.9065 -136.0612 123° Southeast  Level Estimated
07:44AM 44.8765 -135.9952 123° Southeast  Level Estimated
07:45AM 44.8465 -135.9293 123° Southeast  Level Estimated
07:46AM 44.8164 -135.8634 123° Southeast  Level Estimated
07:47AM 44.7863 -135.7975 123° Southeast  Level Estimated
07:48AM 44.7562 -135.7318 123° Southeast  Level Estimated
07:49AM 44.7260 -135.6661 123° Southeast  Level Estimated
07:50AM 44.6958 -135.6005 123° Southeast  Level Estimated
07:51AM 44.6656 -135.5349 123° Southeast  Level Estimated
07:52AM 44.6353 -135.4695 123° Southeast  Level Estimated
07:53AM 44.6050 -135.4041 123° Southeast  Level Estimated
07:54AM 44.5746 -135.3387 123° Southeast  Level Estimated
07:55AM 44.5442 -135.2735 123° Southeast  Level Estimated
07:56AM 44.5138 -135.2082 123° Southeast  Level Estimated
07:57AM 44.4833 -135.1431 123° Southeast  Level Estimated
07:58AM 44.4528 -135.0780 123° Southeast  Level Estimated
07:59AM 44.4223 -135.0130 123° Southeast  Level Estimated
08:00AM 44.3917 -134.9481 123° Southeast  Level Estimated
08:01AM 44.3611 -134.8832 123° Southeast  Level Estimated
08:02AM 44.3304 -134.8184 123° Southeast  Level Estimated
08:03AM 44.2998 -134.7537 124° Southeast  Level Estimated
08:04AM 44.2690 -134.6890 124° Southeast  Level Estimated
08:05AM 44.2383 -134.6244 124° Southeast  Level Estimated
08:06AM 44.2075 -134.5599 124° Southeast  Level Estimated
08:07AM 44.1766 -134.4955 124° Southeast  Level Estimated
08:08AM 44.1458 -134.4311 124° Southeast  Level Estimated
08:09AM 44.1149 -134.3667 124° Southeast  Level Estimated
08:10AM 44.0839 -134.3025 124° Southeast  Level Estimated
08:11AM 44.0529 -134.2383 124° Southeast  Level Estimated
08:12AM 44.0219 -134.1742 124° Southeast  Level Estimated
08:13AM 43.9909 -134.1101 124° Southeast  Level Estimated
08:14AM 43.9598 -134.0461 124° Southeast  Level Estimated
08:15AM 43.9287 -133.9822 124° Southeast  Level Estimated
08:16AM 43.8975 -133.9183 124° Southeast  Level Estimated
08:17AM 43.8663 -133.8545 124° Southeast  Level Estimated
08:18AM 43.8351 -133.7908 124° Southeast  Level Estimated
08:19AM 43.8038 -133.7272 124° Southeast  Level Estimated
08:20AM 43.7725 -133.6636 124° Southeast  Level Estimated
08:21AM 43.7412 -133.6001 124° Southeast  Level Estimated
08:22AM 43.7098 -133.5366 124° Southeast  Level Estimated
08:23AM 43.6784 -133.4732 124° Southeast  Level Estimated
08:24AM 43.6470 -133.4099 124° Southeast  Level Estimated
08:25AM 43.6155 -133.3466 124° Southeast  Level Estimated
08:26AM 43.5840 -133.2834 125° Southeast  Level Estimated
08:27AM 43.5525 -133.2203 125° Southeast  Level Estimated
08:28AM 43.5209 -133.1573 125° Southeast  Level Estimated
08:29AM 43.4893 -133.0943 125° Southeast  Level Estimated
08:30AM 43.4576 -133.0313 125° Southeast  Level Estimated
08:31AM 43.4259 -132.9685 125° Southeast  Level Estimated
08:32AM 43.3942 -132.9057 125° Southeast  Level Estimated
08:33AM 43.3625 -132.8429 125° Southeast  Level Estimated
08:34AM 43.3307 -132.7803 125° Southeast  Level Estimated
08:35AM 43.2989 -132.7177 125° Southeast  Level Estimated
08:36AM 43.2670 -132.6552 125° Southeast  Level Estimated
08:37AM 43.2351 -132.5927 125° Southeast  Level Estimated
08:38AM 43.2032 -132.5303 125° Southeast  Level Estimated
08:39AM 43.1712 -132.4679 125° Southeast  Level Estimated
08:40AM 43.1393 -132.4057 125° Southeast  Level Estimated
08:41AM 43.1072 -132.3435 125° Southeast  Level Estimated
08:42AM 43.0752 -132.2813 125° Southeast  Level Estimated
08:43AM 43.0431 -132.2192 125° Southeast  Level Estimated
08:44AM 43.0110 -132.1572 125° Southeast  Level Estimated
08:45AM 42.9788 -132.0953 125° Southeast  Level Estimated
08:46AM 42.9466 -132.0334 125° Southeast  Level Estimated
08:47AM 42.9144 -131.9716 125° Southeast  Level Estimated
08:48AM 42.8821 -131.9098 125° Southeast  Level Estimated
08:49AM 42.8498 -131.8481 126° Southeast  Level Estimated
08:50AM 42.8175 -131.7865 126° Southeast  Level Estimated
08:51AM 42.7852 -131.7250 126° Southeast  Level Estimated
08:52AM 42.7528 -131.6635 126° Southeast  Level Estimated
08:53AM 42.7204 -131.6020 126° Southeast  Level Estimated
08:54AM 42.6879 -131.5407 126° Southeast  Level Estimated
08:55AM 42.6554 -131.4794 126° Southeast  Level Estimated
08:56AM 42.6229 -131.4181 126° Southeast  Level Estimated
08:57AM 42.5904 -131.3570 126° Southeast  Level Estimated
08:58AM 42.5578 -131.2959 126° Southeast  Level Estimated
08:59AM 42.5251 -131.2348 126° Southeast  Level Estimated
09:00AM 42.4925 -131.1738 126° Southeast  Level Estimated
09:01AM 42.4598 -131.1129 126° Southeast  Level Estimated
09:02AM 42.4271 -131.0520 126° Southeast  Level Estimated
09:03AM 42.3943 -130.9913 126° Southeast  Level Estimated
09:04AM 42.3616 -130.9305 126° Southeast  Level Estimated
09:05AM 42.3288 -130.8699 126° Southeast  Level Estimated
09:06AM 42.2959 -130.8093 126° Southeast  Level Estimated
09:07AM 42.2631 -130.7487 126° Southeast  Level Estimated
09:08AM 42.2301 -130.6883 126° Southeast  Level Estimated
09:09AM 42.1972 -130.6279 126° Southeast  Level Estimated
09:10AM 42.1642 -130.5675 126° Southeast  Level Estimated
09:11AM 42.1312 -130.5072 126° Southeast  Level Estimated
09:12AM 42.0982 -130.4470 126° Southeast  Level Estimated
09:13AM 42.0651 -130.3868 127° Southeast  Level Estimated
09:14AM 42.0320 -130.3267 127° Southeast  Level Estimated
09:15AM 41.9989 -130.2667 127° Southeast  Level Estimated
09:16AM 41.9658 -130.2067 127° Southeast  Level Estimated
09:17AM 41.9326 -130.1468 127° Southeast  Level Estimated
09:18AM 41.8993 -130.0870 127° Southeast  Level Estimated
09:19AM 41.8661 -130.0272 127° Southeast  Level Estimated
09:20AM 41.8328 -129.9675 127° Southeast  Level Estimated
09:21AM 41.7995 -129.9078 127° Southeast  Level Estimated
09:22AM 41.7662 -129.8482 127° Southeast  Level Estimated
09:23AM 41.7328 -129.7887 127° Southeast  Level Estimated
09:24AM 41.6994 -129.7292 127° Southeast  Level Estimated
09:25AM 41.6659 -129.6698 127° Southeast  Level Estimated
09:26AM 41.6325 -129.6104 127° Southeast  Level Estimated
09:27AM 41.5990 -129.5511 127° Southeast  Level Estimated
09:28AM 41.5654 -129.4919 127° Southeast  Level Estimated
09:29AM 41.5319 -129.4327 127° Southeast  Level Estimated
09:30AM 41.4983 -129.3736 127° Southeast  Level Estimated
09:31AM 41.4647 -129.3146 127° Southeast  Level Estimated
09:32AM 41.4310 -129.2556 127° Southeast  Level Estimated
09:33AM 41.3973 -129.1967 127° Southeast  Level Estimated
09:34AM 41.3636 -129.1378 127° Southeast  Level Estimated
09:35AM 41.3299 -129.0790 127° Southeast  Level Estimated
09:36AM 41.2961 -129.0203 127° Southeast  Level Estimated
09:37AM 41.2623 -128.9616 127° Southeast  Level Estimated
09:38AM 41.2285 -128.9030 127° Southeast  Level Estimated
09:39AM 41.1946 -128.8444 128° Southeast  Level Estimated
09:40AM 41.1607 -128.7859 128° Southeast  Level Estimated
09:41AM 41.1268 -128.7275 128° Southeast  Level Estimated
09:42AM 41.0929 -128.6691 128° Southeast  Level Estimated
09:43AM 41.0589 -128.6108 128° Southeast  Level Estimated
09:44AM 41.0249 -128.5525 128° Southeast  Level Estimated
09:45AM 40.9908 -128.4943 128° Southeast  Level Estimated
09:46AM 40.9568 -128.4362 128° Southeast  Level Estimated
09:47AM 40.9227 -128.3781 128° Southeast  Level Estimated
09:48AM 40.8886 -128.3201 128° Southeast  Level Estimated
09:49AM 40.8544 -128.2621 128° Southeast  Level Estimated
09:50AM 40.8203 -128.2042 128° Southeast  Level Estimated
09:51AM 40.7860 -128.1464 128° Southeast  Level Estimated
09:52AM 40.7518 -128.0886 128° Southeast  Level Estimated
09:53AM 40.7175 -128.0309 128° Southeast  Level Estimated
09:54AM 40.6832 -127.9732 128° Southeast  Level Estimated
09:55AM 40.6489 -127.9156 128° Southeast  Level Estimated
09:56AM 40.6146 -127.8581 128° Southeast  Level Estimated
09:57AM 40.5802 -127.8006 128° Southeast  Level Estimated
09:58AM 40.5458 -127.7432 128° Southeast  Level Estimated
09:59AM 40.5113 -127.6858 128° Southeast  Level Estimated
10:00AM 40.4769 -127.6285 128° Southeast  Level Estimated
10:01AM 40.4424 -127.5713 128° Southeast  Level Estimated
10:02AM 40.4078 -127.5141 128° Southeast  Level Estimated
10:03AM 40.3733 -127.4569 128° Southeast  Level Estimated
10:04AM 40.3387 -127.3999 128° Southeast  Level Estimated
10:05AM 40.3041 -127.3429 129° Southeast  Level Estimated
10:06AM 40.2695 -127.2859 129° Southeast  Level Estimated
10:07AM 40.2348 -127.2290 129° Southeast  Level Estimated
10:08AM 40.2001 -127.1722 129° Southeast  Level Estimated
10:09AM 40.1654 -127.1154 129° Southeast  Level Estimated
10:10AM 40.1306 -127.0587 129° Southeast  Level Estimated
10:11AM 40.0959 -127.0020 129° Southeast  Level Estimated
10:12AM 40.0611 -126.9454 129° Southeast  Level Estimated
10:13AM 40.0262 -126.8889 129° Southeast  Level Estimated
10:14AM 39.9914 -126.8324 129° Southeast  Level Estimated
10:15AM 39.9565 -126.7760 129° Southeast  Level Estimated
10:16AM 39.9216 -126.7196 129° Southeast  Level Estimated
10:17AM 39.8867 -126.6633 129° Southeast  Level Estimated
10:18AM 39.8517 -126.6070 129° Southeast  Level Estimated
10:19AM 39.8167 -126.5508 129° Southeast  Level Estimated
10:20AM 39.7817 -126.4947 129° Southeast  Level Estimated
10:21AM 39.7466 -126.4386 129° Southeast  Level Estimated
10:22AM 39.7116 -126.3826 129° Southeast  Level Estimated
10:23AM 39.6765 -126.3266 129° Southeast  Level Estimated
10:24AM 39.6413 -126.2707 129° Southeast  Level Estimated
10:25AM 39.6062 -126.2149 129° Southeast  Level Estimated
10:26AM 39.5710 -126.1590 129° Southeast  Level Estimated
10:27AM 39.5358 -126.1033 129° Southeast  Level Estimated
10:28AM 39.5006 -126.0476 129° Southeast  Level Estimated
10:29AM 39.4653 -125.9920 129° Southeast  Level Estimated
10:30AM 39.4300 -125.9364 129° Southeast  Level Estimated
10:31AM 39.3947 -125.8809 129° Southeast  Level Estimated
10:32AM 39.3594 -125.8254 129° Southeast  Level Estimated
10:33AM 39.3240 -125.7700 130° Southeast  Level Estimated
10:34AM 39.2886 -125.7147 130° Southeast  Level Estimated
10:35AM 39.2532 -125.6594 130° Southeast  Level Estimated
10:36AM 39.2177 -125.6041 130° Southeast  Level Estimated
10:37AM 39.1823 -125.5490 130° Southeast  Level Estimated
10:38AM 39.1468 -125.4938 130° Southeast  Level Estimated
10:39AM 39.1112 -125.4388 130° Southeast  Level Estimated
10:40AM 39.0757 -125.3838 130° Southeast  Level Estimated
10:41AM 39.0401 -125.3288 130° Southeast  Level Estimated
10:42AM 39.0045 -125.2739 130° Southeast  Level Estimated
10:43AM 38.9689 -125.2190 130° Southeast  Level Estimated
10:44AM 38.9332 -125.1643 130° Southeast  Level Estimated
10:45AM 38.8975 -125.1095 130° Southeast  Level Estimated
10:46AM 38.8619 -125.0548 130° Southeast  Level Estimated
10:47AM 38.8261 -125.0002 130° Southeast  Level Estimated
10:48AM 38.7904 -124.9456 130° Southeast  Level Estimated
10:49AM 38.7546 -124.8911 130° Southeast  Level Estimated
10:50AM 38.7188 -124.8366 130° Southeast  Level Estimated
10:51AM 38.6830 -124.7822 130° Southeast  Level Estimated
10:52AM 38.6471 -124.7279 130° Southeast  Level Estimated
10:53AM 38.6112 -124.6736 130° Southeast  Level Estimated
10:54AM 38.5753 -124.6193 130° Southeast  Level Estimated
10:55AM 38.5394 -124.5651 130° Southeast  Level Estimated
10:56AM 38.5034 -124.5110 130° Southeast  Level Estimated
10:57AM 38.4674 -124.4569 130° Southeast  Level Estimated
10:58AM 38.4314 -124.4029 130° Southeast  Level Estimated
10:59AM 38.3954 -124.3489 130° Southeast  Level Estimated
11:00AM 38.3593 -124.2950 130° Southeast  Level Estimated
11:01AM 38.3233 -124.2411 130° Southeast  Level Estimated
11:02AM 38.2872 -124.1873 131° Southeast  Level Estimated
11:03AM 38.2510 -124.1335 131° Southeast  Level Estimated
11:04AM 38.2149 -124.0798 131° Southeast  Level Estimated
11:05AM 38.1787 -124.0262 131° Southeast  Level Estimated
11:06AM 38.1425 -123.9725 131° Southeast  Level Estimated
11:07AM 38.1063 -123.9190 131° Southeast  Level Estimated
11:08AM 38.0700 -123.8655 131° Southeast  Level Estimated
11:09AM 38.0338 -123.8121 131° Southeast  Level Estimated
11:10AM 37.9975 -123.7587 131° Southeast  Level Estimated
11:11AM 37.9611 -123.7053 131° Southeast  Level Estimated
11:12AM 37.9248 -123.6520 131° Southeast  Level Estimated
11:13AM 37.8884 -123.5988 131° Southeast  Level Estimated
11:14AM 37.8520 -123.5456 131° Southeast  Level Estimated
11:15AM 37.8156 -123.4925 131° Southeast  Level Estimated
11:16AM 37.7792 -123.4394 131° Southeast  Level Estimated
11:17AM 37.7427 -123.3864 131° Southeast  Level Estimated
11:18AM 37.7062 -123.3335 131° Southeast  Level Estimated
11:19AM 37.6697 -123.2805 131° Southeast  Level Estimated
11:20AM 37.6332 -123.2277 131° Southeast  Level Estimated
11:21AM 37.5966 -123.1749 131° Southeast  Level Estimated
11:22AM 37.5600 -123.1221 131° Southeast  Level Estimated
11:23AM 37.5234 -123.0694 131° Southeast  Level Estimated
11:24AM 37.4868 -123.0167 131° Southeast  Level Estimated
11:25AM 37.4501 -122.9641 131° Southeast  Level Estimated
11:26AM 37.4134 -122.9116 131° Southeast  Level Estimated
11:27AM 37.3768 -122.8590 131° Southeast  Level Estimated
11:28AM 37.3400 -122.8066 131° Southeast  Level Estimated
11:29AM 37.3033 -122.7542 131° Southeast  Level Estimated
11:30AM 37.2665 -122.7019 131° Southeast  Level Estimated
11:31AM 37.2297 -122.6496 131° Southeast  Level Estimated
11:32AM 37.1929 -122.5973 131° Southeast  Level Estimated
11:33AM 37.1561 -122.5451 132° Southeast  Level Estimated
11:34AM 37.1192 -122.4930 132° Southeast  Level Estimated
11:35AM 37.0823 -122.4408 132° Southeast  Level Estimated
11:36AM 37.0454 -122.3888 132° Southeast  Level Estimated
11:37AM 37.0085 -122.3368 132° Southeast  Level Estimated
11:38AM 36.9715 -122.2849 132° Southeast  Level Estimated
11:39AM 36.9345 -122.2330 132° Southeast  Level Estimated
11:40AM 36.8975 -122.1812 132° Southeast  Level Estimated
11:41AM 36.8605 -122.1294 132° Southeast  Level Estimated
11:42AM 36.8235 -122.0776 132° Southeast  Level Estimated
11:43AM 36.7864 -122.0259 132° Southeast  Level Estimated
11:44AM 36.7493 -121.9743 132° Southeast  Level Estimated
11:45AM 36.7122 -121.9227 132° Southeast  Level Estimated
11:46AM 36.6751 -121.8712 132° Southeast  Level Estimated
11:47AM 36.6379 -121.8197 132° Southeast  Level Estimated
11:48AM 36.6007 -121.7682 132° Southeast  Level Estimated
11:49AM 36.5635 -121.7168 132° Southeast  Level Estimated
11:50AM 36.5263 -121.6655 132° Southeast  Level Estimated
11:51AM 36.4891 -121.6142 132° Southeast  Level Estimated
11:52AM 36.4518 -121.5630 132° Southeast  Level Estimated
11:53AM 36.4145 -121.5118 132° Southeast  Level Estimated
11:54AM 36.3772 -121.4606 132° Southeast  Level Estimated
11:55AM 36.3399 -121.4095 132° Southeast  Level Estimated
11:56AM 36.3025 -121.3585 132° Southeast  Level Estimated
11:57AM 36.2652 -121.3075 132° Southeast  Level Estimated
11:58AM 36.2278 -121.2565 132° Southeast  Level Estimated
11:59AM 36.1903 -121.2056 132° Southeast  Level Estimated
12:00PM 36.1529 -121.1548 132° Southeast  Level Estimated
12:01PM 36.1155 -121.1040 132° Southeast  Level Estimated
12:02PM 36.0780 -121.0532 132° Southeast  Level Estimated
12:03PM 36.0405 -121.0025 132° Southeast  Level Estimated
12:04PM 36.0029 -120.9518 132° Southeast  Level Estimated
12:05PM 35.9654 -120.9012 132° Southeast  Level Estimated
12:06PM 35.9278 -120.8506 133° Southeast  Level Estimated
12:07PM 35.8902 -120.8001 133° Southeast  Level Estimated
12:08PM 35.8526 -120.7497 133° Southeast  Level Estimated
12:09PM 35.8150 -120.6992 133° Southeast  Level Estimated
12:10PM 35.7774 -120.6489 133° Southeast  Level Estimated
12:11PM 35.7397 -120.5985 133° Southeast  Level Estimated
12:12PM 35.7020 -120.5483 133° Southeast  Level Estimated
12:13PM 35.6643 -120.4980 133° Southeast  Level Estimated
12:14PM 35.6265 -120.4479 133° Southeast  Level Estimated
12:15PM 35.5888 -120.3977 133° Southeast  Level Estimated
12:16PM 35.5510 -120.3476 133° Southeast  Level Estimated
12:17PM 35.5132 -120.2976 133° Southeast  Level Estimated
12:18PM 35.4754 -120.2476 133° Southeast  Level Estimated
12:19PM 35.4375 -120.1977 133° Southeast  Level Estimated
12:20PM 35.3997 -120.1478 133° Southeast  Level Estimated
12:21PM 35.3618 -120.0979 133° Southeast  Level Estimated
12:22PM 35.3239 -120.0481 133° Southeast  Level Estimated
12:23PM 35.2860 -119.9983 133° Southeast  Level Estimated
12:24PM 35.2480 -119.9486 133° Southeast  Level Estimated
12:25PM 35.2101 -119.8990 133° Southeast  Level Estimated
12:26PM 35.1721 -119.8493 133° Southeast  Level Estimated
12:27PM 35.1341 -119.7998 133° Southeast  Level Estimated
12:28PM 35.0961 -119.7502 133° Southeast  Level Estimated
12:29PM 35.0580 -119.7008 133° Southeast  Level Estimated
12:30PM 35.0200 -119.6513 133° Southeast  Level Estimated
12:31PM 34.9819 -119.6019 133° Southeast  Level Estimated
12:32PM 34.9438 -119.5526 133° Southeast  Level Estimated
12:33PM 34.9057 -119.5033 133° Southeast  Level Estimated
12:34PM 34.8675 -119.4540 133° Southeast  Level Estimated
12:35PM 34.8294 -119.4048 133° Southeast  Level Estimated
12:36PM 34.7912 -119.3557 133° Southeast  Level Estimated
12:37PM 34.7530 -119.3066 133° Southeast  Level Estimated
12:38PM 34.7148 -119.2575 133° Southeast  Level Estimated
12:39PM 34.6765 -119.2085 133° Southeast  Level Estimated
12:40PM 34.6383 -119.1595 134° Southeast  Level Estimated
12:41PM 34.6000 -119.1106 134° Southeast  Level Estimated
12:42PM 34.5617 -119.0617 134° Southeast  Level Estimated
12:43PM 34.5234 -119.0128 134° Southeast  Level Estimated
12:44PM 34.4850 -118.9641 134° Southeast  Level Estimated
12:45PM 34.4467 -118.9153 134° Southeast  Level Estimated
12:46PM 34.4083 -118.8666 134° Southeast  Level Estimated
12:47PM 34.3699 -118.8179 134° Southeast  Level Estimated
12:48PM 34.3315 -118.7693 134° Southeast  Level Estimated
12:50PM 34.2264 -118.6367 134° Southeast  Level Estimated
12:52PM 34.1776 -118.5753 134° Southeast  Level Estimated
12:53PM 34.1391 -118.5269 134° Southeast  Level Estimated
12:54PM 34.1006 -118.4785 134° Southeast  Level Estimated
12:55PM 34.0620 -118.4302 134° Southeast  Level Estimated
12:56PM 34.0235 -118.3820 134° Southeast  Level Estimated
12:57PM 33.9849 -118.3337 134° Southeast  Level Estimated
12:58PM 33.9463 -118.2856 134° Southeast  Level Estimated
12:59PM 33.9077 -118.2374 134° Southeast  Level Estimated
01:00PM 33.8690 -118.1893 134° Southeast  Level Estimated
01:01PM 33.8304 -118.1413 134° Southeast  Level Estimated
01:02PM 33.7917 -118.0933 134° Southeast  Level Estimated
01:03PM 33.7530 -118.0453 134° Southeast  Level Estimated
01:04PM 33.7143 -117.9974 134° Southeast  Level Estimated
01:05PM 33.6755 -117.9495 134° Southeast  Level Estimated
01:06PM 33.6368 -117.9017 134° Southeast  Level Estimated
01:07PM 33.5980 -117.8539 134° Southeast  Level Estimated
01:08PM 33.5592 -117.8062 134° Southeast  Level Estimated
01:09PM 33.5204 -117.7585 134° Southeast  Level Estimated
01:10PM 33.4816 -117.7108 134° Southeast  Level Estimated
01:11PM 33.4427 -117.6632 134° Southeast  Level Estimated
01:12PM 33.4039 -117.6156 134° Southeast  Level Estimated
01:13PM 33.3650 -117.5681 134° Southeast  Level Estimated
01:14PM 33.3261 -117.5206 134° Southeast  Level Estimated
01:15PM 33.2872 -117.4732 134° Southeast  Level Estimated
01:16PM 33.2482 -117.4258 134° Southeast  Level Estimated
01:17PM 33.2093 -117.3784 135° Southeast  Level Estimated
01:18PM 33.1703 -117.3311 135° Southeast  Level Estimated
01:19PM 33.1313 -117.2838 135° Southeast  Level Estimated
01:20PM 33.1283 -117.2801 135° Southeast  Level Estimated
01:21PM 33.1283 -117.2801 270° West  Level Estimated
01:22PM 33.1283 -117.2801 270° West  Level Estimated
01:23PM 33.1283 -117.2801 270° West  Level Estimated
01:24PM 33.1283 -117.2801 270° West  Level Estimated
01:25PM 33.1283 -117.2801 270° West  Level Estimated
01:26PM 33.1283 -117.2801 270° West  Level Estimated
01:27PM 33.1283 -117.2801 270° West  Level Estimated
01:28PM 33.1283 -117.2801 270° West  Level Estimated
01:29PM 33.1283 -117.2801 270° West  Level Estimated
01:30PM 33.1283 -117.2801 270° West  Level Estimated
01:31PM 33.1283 -117.2801 270° West  Level Estimated
01:32PM 33.1283 -117.2801 270° West  Level Estimated
01:33PM 33.1283 -117.2801 270° West  Level Estimated
01:34PM 33.1283 -117.2801 270° West  Level Estimated
01:35PM 33.1283 -117.2801 270° West  Level Estimated